Impacts METAR Board
IDs:

KCLE - Cleveland/Hopkins In, OH, US

Updated at: 2100 UTC 20 Jun 2019
Potential Impact None Slight Moderate High
Time 20/09Z 20/10Z 20/11Z 20/12Z 20/13Z 20/14Z 20/15Z 20/16Z 20/17Z 20/18Z 20/19Z 20/20Z 20/21Z
Temp68 67 66 65 66 67 70 70 70 69 67 66 66
Dewpt66 65 64 61 62 63 64 65 66 66 65 64 64
Altim29.59 29.59 29.60 29.61 29.62 29.62 29.61 29.60 29.58 29.58 29.57 29.56 29.57
VIS5 8 10 10 1.75 10 10 6 3 5 1 1.75 4
CIG5 13 12 18 18 20 7 10 24 5 46 39 4
CoverOVCOVCOVCOVCOVCOVCBKNOVCOVCOVCOVCOVCOVC
FltCatIFRMVFRMVFRMVFRIFRMVFRIFRMVFRMVFRIFRIFRIFRLIFR
WX-RA BR-RA-----RA BR-----RARA BR-RA BR-RA BRRA BR-RA BR
WDir20401020504050801203602040360
WSpd4 9 8 4 4 3 5 4 3 8 7 8 6
WGst-- -- -- -- -- -- -- -- -- -- -- -- --
Raw hourly METARs
KCLE 200851Z 02004KT 5SM -RA BR OVC005 20/19 A2959 RMK AO2 SLP013 P0003 60007 T02000189 57004
KCLE 200951Z 04009KT 8SM -RA SCT004 OVC013 19/18 A2959 RMK AO2 SLP014 P0001 T01940183
KCLE 201051Z 01008KT 10SM FEW005 BKN012 OVC017 19/18 A2960 RMK AO2 RAE39 SLP020 P0010 T01890178
KCLE 201151Z 02004KT 10SM FEW006 SCT010 OVC018 18/16 A2961 RMK AO2 SLP021 60018 70020 T01830161 10206 20183 53006
KCLE 201253Z 05004KT 1 3/4SM -RA BR OVC018 19/17 A2962 RMK AO2 P0000 T01890167
KCLE 201400Z 04003KT 10SM SCT007 OVC020 19/17 A2962 RMK AO2 T01940172
KCLE 201458Z 05005KT 10SM BKN007 BKN014 21/18 A2961 RMK AO2 T02110178
KCLE 201559Z 08004KT 6SM -RA BKN010 OVC070 21/18 A2960 RMK AO2 RAB53 P0000 T02110183
KCLE 201703Z 12003KT 3SM RA BR SCT009 BKN024 OVC031 21/19 A2958 RMK AO2 RAB1653 P0001 T02110189
KCLE 201804Z 36008KT 5SM -RA BR BKN005 BKN015 OVC049 21/19 A2958 RMK AO2 P0000 T02060189
KCLE 201905Z 02007KT 1SM -RA BR FEW003 SCT027 OVC046 19/18 A2957 RMK AO2 P0016 T01940183
KCLE 202001Z 04008KT 1 3/4SM RA BR SCT003 BKN039 OVC080 19/18 A2956 RMK AO2 P0005 T01890178
KCLE 202051Z 36006KT 4SM -RA BR OVC004 19/18 A2957 RMK AO2 SLP010 P0009 60062 T01890178 55002



Page loaded:  21:51 UTC  |   02:51 PM Pacific  |   03:51 PM Mountain  |   04:51 PM Central  |   05:51 PM Eastern

 

ADVISORIES

FORECASTS

FORECASTS

OBSERVATIONS

USER TOOLS

ABOUT US